South Charleston, Ohio
Current Conditions -  °F | °C
As of 2:56 PM on Friday 19 Dec 2014 (Local Time) from KSGH Reporting Station
Haze Haze  
Wind Chill: 29°   Ceiling: 2000
Heat Index: 29°   Visibility: 6mi
Dew Point: 24°   Wind: 3mph
Humidity: 81%   Direction: 180°S
Pressure: 30.25"   Gusts: NA
Location:  39.83°N, 83.63°W
Report Text: KSGH 191956Z AUTO 18003KT 6SM HZ OVC020 M02/M04 A3025 RMK AO2 T10161044 SLP257
Loading
Personal Weather Stations






























Interactive Weather Map New forecast layout! Learn more

10-Day Weather Forecast

Advertisements
Track Severe Weather on mobile